Time;durP1;ratioP1;P1;durP2;ratioP2;P2;SDS_P1;SDS_P2;PMS_P1;PMS_P2;Temp;Humidity;BMP_temperature;BMP_pressure;BME280_temperature;BME280_humidity;BME280_pressure;Samples;Min_cycle;Max_cycle;Signal;HPM_P1;HPM_P2
2021/07/29 00:23:03;;;;;;;8.40;4.57;;;18.50;99.90;;;;;;5007785;28;20584;-78
2021/07/29 00:47:16;;;;;;;;;;;;;;;;;;;;;
2021/07/29 01:06:40;;;;;;;;;;;;;;;;;;;;;
2021/07/29 01:09:49;;;;;;;6.88;4.55;;;18.20;99.90;;;;;;5011423;28;20461;-78
2021/07/29 01:13:02;;;;;;;;;;;;;;;;;;;;;
2021/07/29 01:19:43;;;;;;;10.85;5.70;;;18.20;99.90;;;;;;4950812;29;20106;-78
2021/07/29 01:30:04;;;;;;;7.70;3.97;;;18.00;99.90;;;;;;4950387;29;20110;-78
2021/07/29 02:33:43;;;;;;;;;;;;;;;;;;;;;
2021/07/29 03:10:57;;;;;;;;;;;;;;;;;;;;;
2021/07/29 03:21:29;;;;;;;6.75;4.18;;;17.20;99.90;;;;;;4891585;29;20168;-78
2021/07/29 03:28:37;;;;;;;7.93;4.97;;;17.10;99.90;;;;;;4854533;29;20048;-78
2021/07/29 03:38:50;;;;;;;;;;;;;;;;;;;;;
2021/07/29 03:45:47;;;;;;;;;;;;;;;;;;;;;
2021/07/29 04:01:21;;;;;;;10.75;6.45;;;16.90;99.90;;;;;;5009380;28;20428;-78
2021/07/29 04:08:12;;;;;;;;;;;;;;;;;;;;;
2021/07/29 04:11:50;;;;;;;;;;;;;;;;;;;;;
2021/07/29 04:21:28;;;;;;;;;;;;;;;;;;;;;
2021/07/29 04:30:39;;;;;;;10.35;5.55;;;16.80;99.90;;;;;;5025079;28;20045;-78
2021/07/29 04:33:49;;;;;;;13.57;6.57;;;16.70;99.90;;;;;;4930574;28;20137;-78
2021/07/29 04:53:17;;;;;;;13.57;11.63;;;16.70;99.90;;;;;;4992703;28;20510;-77
2021/07/29 04:55:52;;;;;;;13.70;10.57;;;16.80;99.90;;;;;;4997431;28;20050;-78
2021/07/29 04:59:26;;;;;;;;;;;;;;;;;;;;;
2021/07/29 05:02:17;;;;;;;13.55;9.90;;;16.80;99.90;;;;;;4819455;29;20038;-77
2021/07/29 05:12:55;;;;;;;;;;;;;;;;;;;;;
2021/07/29 05:26:34;;;;;;;10.75;5.80;;;17.60;99.90;;;;;;4807680;29;20049;-78
2021/07/29 05:29:00;;;;;;;9.45;5.03;;;17.70;99.90;;;;;;4912435;29;20041;-77
2021/07/29 05:31:26;;;;;;;14.10;6.25;;;17.90;99.90;;;;;;4967356;28;20121;-78
2021/07/29 05:33:52;;;;;;;11.18;6.00;;;18.10;99.90;;;;;;4990390;28;20073;-77
2021/07/29 05:36:17;;;;;;;11.18;5.97;;;18.30;99.90;;;;;;4983370;28;20046;-78
2021/07/29 05:38:43;;;;;;;12.27;6.65;;;18.60;99.90;;;;;;4968602;28;20485;-77
2021/07/29 05:41:09;;;;;;;10.40;5.88;;;18.60;99.90;;;;;;4972153;28;20042;-78
2021/07/29 05:43:36;;;;;;;11.20;5.85;;;18.70;99.90;;;;;;4973980;28;20038;-77
2021/07/29 05:46:06;;;;;;;9.90;5.22;;;18.80;99.90;;;;;;4973687;28;20046;-78
2021/07/29 05:48:32;;;;;;;10.75;6.25;;;18.90;99.90;;;;;;4954591;28;20043;-78
2021/07/29 05:50:57;;;;;;;10.20;6.72;;;19.00;99.90;;;;;;4961554;28;20122;-78
2021/07/29 05:53:24;;;;;;;10.43;6.85;;;19.10;99.90;;;;;;4991389;28;20034;-78
2021/07/29 05:58:25;;;;;;;10.70;7.43;;;19.50;99.90;;;;;;4293840;26;20145;-79
2021/07/29 17:06:49;;;;;;;5.05;3.20;;;27.60;91.10;;;;;;4911506;23;20103;-77
2021/07/29 17:09:14;;;;;;;7.78;3.08;;;27.60;91.10;;;;;;4911729;29;20637;-77
2021/07/29 17:11:40;;;;;;;5.53;2.70;;;27.50;91.00;;;;;;4912802;29;20044;-77
2021/07/29 17:14:05;;;;;;;8.30;3.33;;;27.50;91.20;;;;;;4913724;29;20044;-77
2021/07/29 17:16:31;;;;;;;7.03;3.15;;;27.50;90.60;;;;;;4925842;29;20667;-77
2021/07/29 17:18:57;;;;;;;8.32;3.40;;;27.40;90.60;;;;;;4922259;29;20475;-77
2021/07/29 17:21:22;;;;;;;6.20;3.38;;;27.40;90.60;;;;;;4916599;29;20115;-77
2021/07/29 17:23:48;;;;;;;5.90;2.95;;;27.30;90.70;;;;;;4922899;29;20043;-78
2021/07/29 17:26:14;;;;;;;5.75;3.42;;;27.30;90.70;;;;;;4918238;29;20048;-78
2021/07/29 17:28:40;;;;;;;8.93;3.25;;;27.20;90.60;;;;;;4914583;29;20874;-77
2021/07/29 17:31:05;;;;;;;6.57;2.85;;;27.10;90.60;;;;;;4912997;29;20059;-77
2021/07/29 17:33:31;;;;;;;6.25;3.03;;;27.10;90.40;;;;;;4901305;29;20048;-77
2021/07/29 17:36:00;;;;;;;5.97;3.13;;;27.10;90.50;;;;;;4918560;29;20587;-77
2021/07/29 17:38:29;;;;;;;5.13;2.85;;;27.10;90.90;;;;;;4912221;29;20056;-77
2021/07/29 17:40:55;;;;;;;6.45;3.17;;;27.00;89.70;;;;;;4910027;29;20899;-77
2021/07/29 17:43:20;;;;;;;5.53;3.53;;;27.00;89.90;;;;;;4914759;29;20067;-77
2021/07/29 17:45:47;;;;;;;6.72;2.92;;;26.90;90.10;;;;;;4913356;29;20044;-76
2021/07/29 17:48:12;;;;;;;6.03;2.83;;;26.80;88.50;;;;;;4911604;29;20046;-77
2021/07/29 17:50:38;;;;;;;6.18;3.00;;;26.80;89.20;;;;;;4913088;29;20048;-77
2021/07/29 17:53:04;;;;;;;5.32;3.70;;;26.70;87.40;;;;;;4912624;29;20127;-77
2021/07/29 17:55:30;;;;;;;8.25;3.30;;;26.70;87.00;;;;;;4910687;29;20099;-77
2021/07/29 17:57:56;;;;;;;5.88;3.17;;;26.70;87.10;;;;;;4904861;29;20040;-77
2021/07/29 18:00:22;;;;;;;6.38;3.45;;;26.60;86.00;;;;;;4911373;29;20040;-76
2021/07/29 18:02:47;;;;;;;6.97;3.70;;;26.60;85.60;;;;;;4906150;29;20044;-77
2021/07/29 18:05:13;;;;;;;7.03;4.00;;;26.50;86.10;;;;;;4907895;29;20029;-77
2021/07/29 18:07:39;;;;;;;7.10;3.50;;;26.50;87.00;;;;;;4912386;29;20144;-77
2021/07/29 18:10:05;;;;;;;6.53;3.40;;;26.40;86.40;;;;;;4911641;29;20036;-77
2021/07/29 18:12:31;;;;;;;7.30;3.55;;;26.30;86.50;;;;;;4908884;29;20040;-77
2021/07/29 18:14:56;;;;;;;5.20;3.30;;;26.30;87.00;;;;;;4911387;29;20046;-77
2021/07/29 18:17:22;;;;;;;8.65;3.88;;;26.20;88.50;;;;;;4911132;29;20044;-76
2021/07/29 18:19:48;;;;;;;9.43;4.15;;;26.20;91.80;;;;;;4904034;29;20028;-77
2021/07/29 18:22:14;;;;;;;8.15;3.38;;;26.10;92.50;;;;;;4912311;29;20048;-76
2021/07/29 18:24:41;;;;;;;7.28;3.55;;;26.10;93.00;;;;;;4912790;29;20036;-77
2021/07/29 18:27:07;;;;;;;7.43;3.70;;;26.00;93.40;;;;;;4909018;29;20052;-77
2021/07/29 18:29:35;;;;;;;6.88;3.10;;;26.00;93.50;;;;;;4907555;29;20048;-76
2021/07/29 18:32:02;;;;;;;6.82;3.40;;;25.90;93.00;;;;;;4906690;29;20088;-77
2021/07/29 18:34:28;;;;;;;5.82;3.50;;;25.80;93.20;;;;;;4905486;29;20146;-77
2021/07/29 18:36:54;;;;;;;7.80;2.90;;;25.80;93.80;;;;;;4905214;29;20070;-76
2021/07/29 18:39:20;;;;;;;7.72;3.70;;;25.70;93.40;;;;;;4907213;29;20071;-76
2021/07/29 18:41:46;;;;;;;6.10;3.50;;;25.60;93.30;;;;;;4912710;29;20051;-76
2021/07/29 18:44:15;;;;;;;7.78;4.15;;;25.50;93.10;;;;;;4908967;29;20032;-77
2021/07/29 18:46:42;;;;;;;8.40;3.95;;;25.50;93.70;;;;;;4911645;29;20155;-77
2021/07/29 18:49:08;;;;;;;7.43;3.80;;;25.40;93.80;;;;;;4909252;29;20036;-77
2021/07/29 18:51:34;;;;;;;6.70;3.50;;;25.40;94.30;;;;;;4907515;29;20061;-76
2021/07/29 18:54:00;;;;;;;8.27;4.30;;;25.30;94.70;;;;;;4911980;29;20036;-77
2021/07/29 18:56:26;;;;;;;7.00;3.60;;;25.20;94.00;;;;;;4913081;29;20040;-76
2021/07/29 18:58:52;;;;;;;7.13;3.60;;;25.20;93.90;;;;;;4898337;29;20139;-77
2021/07/29 19:01:17;;;;;;;7.22;3.88;;;25.10;94.40;;;;;;4902253;29;20508;-77
2021/07/29 19:03:43;;;;;;;6.35;3.65;;;25.00;94.30;;;;;;4904394;29;20525;-76
2021/07/29 19:06:09;;;;;;;7.50;4.85;;;25.00;94.80;;;;;;4900976;29;20068;-77
2021/07/29 19:08:35;;;;;;;16.75;12.93;;;25.00;94.70;;;;;;4906538;29;20040;-76
2021/07/29 19:11:02;;;;;;;10.25;5.50;;;24.90;95.00;;;;;;4909646;29;20040;-77
2021/07/29 19:13:33;;;;;;;5.82;3.85;;;24.80;95.10;;;;;;4907550;29;20075;-77
2021/07/29 19:15:59;;;;;;;7.70;3.75;;;24.70;96.10;;;;;;4903977;29;20044;-77
2021/07/29 19:18:25;;;;;;;10.00;3.85;;;24.50;96.10;;;;;;4908127;29;20639;-77
2021/07/29 19:20:50;;;;;;;7.00;3.80;;;24.40;96.40;;;;;;4905665;29;20050;-77
2021/07/29 19:23:16;;;;;;;6.82;3.92;;;24.40;96.30;;;;;;4907566;29;20115;-77
2021/07/29 19:25:41;;;;;;;7.80;4.00;;;24.40;96.30;;;;;;4910677;29;20360;-76
2021/07/29 19:28:10;;;;;;;8.75;3.95;;;24.30;97.00;;;;;;4909160;29;20040;-76
2021/07/29 19:30:36;;;;;;;6.55;3.63;;;24.20;96.50;;;;;;4908611;29;20133;-77
2021/07/29 19:33:03;;;;;;;9.63;4.22;;;24.20;96.70;;;;;;4908091;29;20036;-76
2021/07/29 19:35:28;;;;;;;10.20;5.38;;;24.20;97.00;;;;;;4907739;29;20052;-77
2021/07/29 19:37:54;;;;;;;11.10;5.50;;;24.10;96.10;;;;;;4913467;29;20415;-77
2021/07/29 19:40:20;;;;;;;9.93;4.57;;;24.10;96.20;;;;;;4914059;29;20411;-76
2021/07/29 19:42:46;;;;;;;10.40;4.95;;;24.10;96.10;;;;;;4908036;29;20040;-77
2021/07/29 19:45:11;;;;;;;10.25;4.55;;;24.00;96.10;;;;;;4907556;29;20123;-77
2021/07/29 19:47:37;;;;;;;8.05;4.68;;;24.00;96.10;;;;;;4911585;29;20036;-77
2021/07/29 19:50:05;;;;;;;7.63;4.00;;;23.80;96.50;;;;;;4912980;29;20040;-77
2021/07/29 19:52:31;;;;;;;6.20;3.63;;;23.80;97.20;;;;;;4913283;29;20406;-77
2021/07/29 19:54:57;;;;;;;8.13;4.07;;;23.70;97.50;;;;;;4910835;29;20044;-77
2021/07/29 19:57:22;;;;;;;9.32;3.45;;;23.40;97.80;;;;;;4910049;29;20040;-77
2021/07/29 19:59:48;;;;;;;10.90;3.53;;;23.40;97.70;;;;;;4911741;29;20383;-77
2021/07/29 20:02:13;;;;;;;6.90;4.25;;;23.40;98.40;;;;;;4904918;29;20055;-77
2021/07/29 20:04:39;;;;;;;8.25;4.70;;;23.40;99.60;;;;;;4913054;29;20646;-77
2021/07/29 20:07:05;;;;;;;9.05;4.80;;;23.40;99.90;;;;;;4914674;29;20052;-77
2021/07/29 20:09:31;;;;;;;7.57;4.60;;;23.20;99.90;;;;;;4906758;29;20043;-77
2021/07/29 20:11:57;;;;;;;9.38;4.10;;;23.20;99.90;;;;;;4912847;29;20487;-77
2021/07/29 20:14:23;;;;;;;30.85;8.05;;;23.00;99.80;;;;;;4917495;29;20046;-77
2021/07/29 20:16:49;;;;;;;16.33;6.32;;;22.80;99.70;;;;;;4907622;29;20700;-76
2021/07/29 20:19:15;;;;;;;17.38;6.30;;;22.90;99.90;;;;;;4914402;29;20036;-77
2021/07/29 20:21:41;;;;;;;14.23;6.03;;;22.80;99.90;;;;;;4915034;29;20047;-77
2021/07/29 20:24:07;;;;;;;13.00;5.88;;;22.30;99.90;;;;;;4913429;29;20040;-77
2021/07/29 20:26:36;;;;;;;12.02;5.55;;;22.00;99.90;;;;;;4912373;29;20130;-77
2021/07/29 20:29:03;;;;;;;10.73;5.97;;;21.90;99.90;;;;;;4908586;29;20035;-77
2021/07/29 20:31:30;;;;;;;16.83;7.43;;;22.00;99.90;;;;;;4913508;29;20807;-77
2021/07/29 20:33:55;;;;;;;15.45;6.43;;;22.00;99.90;;;;;;4914770;29;20024;-77
2021/07/29 20:36:21;;;;;;;10.98;5.47;;;21.70;99.90;;;;;;4917091;29;20052;-78
2021/07/29 20:38:47;;;;;;;12.32;5.65;;;21.60;99.90;;;;;;4908453;29;20036;-78
2021/07/29 20:41:15;;;;;;;13.77;6.32;;;21.60;99.90;;;;;;4909264;29;20040;-78
2021/07/29 20:43:42;;;;;;;11.35;5.50;;;21.50;99.90;;;;;;4908924;29;20036;-77
2021/07/29 20:46:08;;;;;;;9.98;5.70;;;21.40;99.90;;;;;;4908640;29;20044;-78
2021/07/29 20:48:33;;;;;;;11.98;5.70;;;21.40;99.90;;;;;;4910335;29;20086;-78
2021/07/29 20:51:02;;;;;;;10.93;5.50;;;21.40;99.90;;;;;;4913647;29;20047;-77
2021/07/29 20:53:29;;;;;;;10.93;6.03;;;21.20;99.90;;;;;;4913055;29;20395;-77
2021/07/29 20:55:54;;;;;;;11.60;5.47;;;21.00;99.90;;;;;;4928108;29;20084;-77
2021/07/29 20:58:20;;;;;;;12.57;6.18;;;20.90;99.90;;;;;;4914580;29;20518;-77
2021/07/29 21:00:46;;;;;;;16.50;7.00;;;20.80;99.90;;;;;;4908222;29;20036;-77
2021/07/29 21:03:12;;;;;;;12.52;7.28;;;20.80;99.90;;;;;;4915412;29;20063;-77
2021/07/29 21:05:37;;;;;;;13.25;7.30;;;21.00;99.90;;;;;;4903100;29;20048;-78
2021/07/29 21:08:04;;;;;;;11.57;6.50;;;21.00;99.90;;;;;;4902716;29;20040;-77
2021/07/29 21:10:30;;;;;;;8.50;5.82;;;21.10;99.90;;;;;;4913774;29;20055;-77
2021/07/29 21:12:58;;;;;;;9.45;6.05;;;20.80;99.90;;;;;;4914536;29;20032;-78
2021/07/29 21:15:24;;;;;;;10.75;7.38;;;20.90;99.90;;;;;;4917480;29;20044;-77
2021/07/29 21:17:50;;;;;;;9.93;7.32;;;21.00;99.90;;;;;;4915015;29;20043;-77
2021/07/29 21:20:15;;;;;;;10.45;5.78;;;20.60;99.90;;;;;;4921004;29;20052;-77
2021/07/29 21:22:41;;;;;;;13.25;5.78;;;20.70;99.90;;;;;;4914331;29;20036;-77
2021/07/29 21:25:08;;;;;;;8.80;5.07;;;20.60;99.90;;;;;;4916944;29;20052;-77
2021/07/29 21:27:34;;;;;;;9.35;5.55;;;20.60;99.90;;;;;;4913456;29;20040;-77
2021/07/29 21:30:00;;;;;;;10.52;5.43;;;20.70;99.90;;;;;;4911060;29;20181;-77
2021/07/29 21:32:27;;;;;;;8.48;5.03;;;20.70;99.90;;;;;;4912796;29;20143;-77
2021/07/29 21:34:59;;;;;;;8.30;5.28;;;20.70;99.90;;;;;;4923498;29;20043;-77
2021/07/29 21:37:25;;;;;;;8.88;5.55;;;20.50;99.90;;;;;;4900313;29;20075;-77
2021/07/29 21:39:52;;;;;;;10.52;7.10;;;20.50;99.90;;;;;;4915221;29;20046;-78
2021/07/29 21:42:17;;;;;;;8.23;5.05;;;20.50;99.90;;;;;;4919516;29;20043;-77
2021/07/29 21:44:43;;;;;;;9.80;5.50;;;20.50;99.90;;;;;;4916673;29;20036;-77
2021/07/29 21:47:10;;;;;;;9.00;5.35;;;20.40;99.90;;;;;;4913785;29;20096;-77
2021/07/29 21:49:35;;;;;;;7.25;5.07;;;20.40;99.90;;;;;;4922873;29;20035;-77
2021/07/29 21:52:02;;;;;;;8.80;5.72;;;20.30;99.90;;;;;;4919347;29;20119;-77
2021/07/29 21:54:27;;;;;;;8.75;5.82;;;20.20;99.90;;;;;;4913859;29;20032;-77
2021/07/29 21:56:56;;;;;;;8.25;5.47;;;20.20;99.90;;;;;;4912679;29;20057;-76
2021/07/29 21:59:22;;;;;;;10.70;6.07;;;20.20;99.90;;;;;;4910954;29;20029;-76
2021/07/29 22:01:48;;;;;;;9.25;5.60;;;20.20;99.90;;;;;;4909208;29;20036;-77
2021/07/29 22:04:19;;;;;;;8.40;6.40;;;20.20;99.90;;;;;;4908859;29;20479;-76
2021/07/29 22:06:46;;;;;;;9.83;5.73;;;20.20;99.90;;;;;;4913213;29;20689;-76
2021/07/29 22:09:11;;;;;;;9.00;6.50;;;20.10;99.90;;;;;;4913185;29;20028;-77
2021/07/29 22:11:37;;;;;;;11.25;6.60;;;19.90;99.90;;;;;;4913372;29;20080;-76
2021/07/29 22:14:02;;;;;;;9.30;6.82;;;20.00;99.90;;;;;;4913604;29;20075;-76
2021/07/29 22:19:14;;;;;;;9.07;6.68;;;20.10;99.90;;;;;;4904728;29;20079;-77
2021/07/29 22:21:40;;;;;;;9.07;5.55;;;20.10;99.90;;;;;;4906407;29;20055;-76
2021/07/29 22:24:05;;;;;;;7.80;5.57;;;20.20;99.90;;;;;;4905867;29;20028;-76
2021/07/29 22:26:31;;;;;;;9.98;6.13;;;20.30;99.90;;;;;;4906729;29;20048;-76
2021/07/29 22:28:57;;;;;;;9.35;5.97;;;20.40;99.90;;;;;;4905895;29;20547;-76
2021/07/29 22:31:22;;;;;;;9.50;6.03;;;20.40;99.90;;;;;;4904515;29;20764;-77
2021/07/29 22:33:48;;;;;;;11.27;5.43;;;20.40;99.90;;;;;;4913346;29;20084;-76
2021/07/29 22:36:14;;;;;;;8.88;5.63;;;20.20;99.90;;;;;;4905346;29;20514;-76
2021/07/29 22:38:40;;;;;;;10.20;5.65;;;20.10;99.90;;;;;;4894137;29;20124;-76
2021/07/29 22:41:05;;;;;;;8.85;5.75;;;20.10;99.90;;;;;;4894321;29;20044;-77
2021/07/29 22:43:31;;;;;;;8.75;5.55;;;20.00;99.90;;;;;;4906387;29;20036;-77
2021/07/29 22:45:56;;;;;;;12.50;6.07;;;20.00;99.90;;;;;;4901759;29;20049;-77
2021/07/29 22:48:22;;;;;;;9.43;6.07;;;20.00;99.90;;;;;;4908692;29;20048;-77
2021/07/29 22:50:48;;;;;;;9.27;5.45;;;20.00;99.90;;;;;;4901801;29;20430;-77
2021/07/29 22:53:13;;;;;;;9.00;6.72;;;20.00;99.90;;;;;;4904630;29;20057;-77
2021/07/29 22:55:39;;;;;;;8.60;6.90;;;19.80;99.90;;;;;;4913584;29;20048;-77
2021/07/29 22:58:04;;;;;;;10.35;7.07;;;19.80;99.90;;;;;;4912261;29;20041;-77
2021/07/29 23:00:30;;;;;;;8.65;6.15;;;19.80;99.90;;;;;;4912697;29;20048;-76
2021/07/29 23:02:56;;;;;;;8.52;6.53;;;19.70;99.90;;;;;;4915157;29;20475;-77
2021/07/29 23:05:21;;;;;;;10.00;6.00;;;19.80;99.90;;;;;;4912180;29;20091;-77
2021/07/29 23:07:47;;;;;;;8.70;6.82;;;19.80;99.90;;;;;;4904568;29;20060;-77
2021/07/29 23:10:13;;;;;;;10.48;6.35;;;19.80;99.90;;;;;;4904758;29;20098;-77
2021/07/29 23:12:38;;;;;;;8.98;6.40;;;19.80;99.90;;;;;;4912339;29;20131;-77
2021/07/29 23:15:04;;;;;;;8.18;6.45;;;20.00;99.90;;;;;;4911889;29;20080;-76
2021/07/29 23:17:30;;;;;;;10.05;8.18;;;19.90;99.90;;;;;;4912154;29;20036;-77
2021/07/29 23:19:56;;;;;;;18.42;16.63;;;19.80;99.90;;;;;;4911728;29;20046;-77
2021/07/29 23:22:22;;;;;;;16.88;14.30;;;19.80;99.90;;;;;;4912768;29;20061;-77
2021/07/29 23:25:02;;;;;;;15.20;11.93;;;19.80;99.90;;;;;;4912062;29;20032;-77
2021/07/29 23:30:13;;;;;;;11.98;9.98;;;19.80;99.90;;;;;;4912346;29;20836;-77
2021/07/29 23:32:39;;;;;;;12.13;10.60;;;19.70;99.90;;;;;;4911669;29;20044;-77
2021/07/29 23:35:05;;;;;;;13.95;11.98;;;19.70;99.90;;;;;;4911553;29;20048;-76
2021/07/29 23:37:31;;;;;;;16.90;14.38;;;19.70;99.90;;;;;;4912003;29;20843;-77
2021/07/29 23:40:00;;;;;;;13.63;10.65;;;19.60;99.90;;;;;;4912148;29;20400;-77
2021/07/29 23:42:29;;;;;;;14.65;12.35;;;19.50;99.90;;;;;;4911479;29;20771;-77
2021/07/29 23:44:55;;;;;;;14.85;11.13;;;19.60;99.90;;;;;;4912507;29;20040;-77
2021/07/29 23:47:20;;;;;;;10.77;8.55;;;19.70;99.90;;;;;;4909526;29;20155;-77
2021/07/29 23:49:46;;;;;;;12.00;10.27;;;19.60;99.90;;;;;;4912675;29;20126;-77
2021/07/29 23:52:12;;;;;;;16.05;11.57;;;19.50;99.90;;;;;;4911793;29;20048;-77
2021/07/29 23:54:37;;;;;;;12.43;9.95;;;19.60;99.90;;;;;;4911935;29;20721;-77
2021/07/29 23:57:03;;;;;;;12.77;9.70;;;19.60;99.90;;;;;;4912142;29;20056;-77
2021/07/29 23:59:29;;;;;;;13.98;8.25;;;19.60;99.90;;;;;;4911739;29;20040;-77
